createdAt,value
2023-05-10T00:00:28.703Z,933.32
2023-05-10T00:00:56.649Z,933.32
2023-05-10T00:01:27.788Z,933.32
2023-05-10T00:01:58.748Z,933.32
2023-05-10T00:02:29.864Z,933.22
2023-05-10T00:03:00.468Z,933.22
2023-05-10T00:03:31.242Z,933.22
2023-05-10T00:04:02.314Z,933.22
2023-05-10T00:04:34.038Z,933.22
2023-05-10T00:05:04.196Z,933.22
2023-05-10T00:05:35.339Z,933.12
2023-05-10T00:06:06.363Z,933.12
2023-05-10T00:06:37.227Z,933.22
2023-05-10T00:07:08.429Z,933.22
2023-05-10T00:07:39.600Z,933.22
2023-05-10T00:08:10.329Z,933.32
2023-05-10T00:08:41.639Z,933.32
2023-05-10T00:09:12.698Z,933.22
2023-05-10T00:09:44.540Z,933.22
2023-05-10T00:10:14.435Z,933.22
2023-05-10T00:10:45.053Z,933.22
2023-05-10T00:11:16.431Z,933.52
2023-05-10T00:11:47.530Z,933.52
2023-05-10T00:12:18.661Z,933.22
2023-05-10T00:12:49.654Z,933.22
2023-05-10T00:13:20.370Z,933.22
2023-05-10T00:13:51.909Z,933.22
2023-05-10T00:14:22.485Z,933.32
2023-05-10T00:14:54.570Z,933.32
2023-05-10T00:15:26.746Z,933.42
2023-05-10T00:15:55.289Z,933.42
2023-05-10T00:16:26.261Z,933.02
2023-05-10T00:16:57.154Z,933.02
2023-05-10T00:17:28.567Z,933.22
2023-05-10T00:17:59.544Z,933.22
2023-05-10T00:18:30.254Z,933.32
2023-05-10T00:19:01.496Z,933.32
2023-05-10T00:19:32.904Z,933.02
2023-05-10T00:20:04.586Z,933.02
2023-05-10T00:20:34.490Z,933.22
2023-05-10T00:21:05.286Z,933.22
2023-05-10T00:21:36.563Z,933.22
2023-05-10T00:22:07.208Z,933.22
2023-05-10T00:22:38.323Z,933.22
2023-05-10T00:23:09.780Z,933.32
2023-05-10T00:23:40.692Z,933.32
2023-05-10T00:24:11.589Z,933.12
2023-05-10T00:24:42.567Z,933.12
2023-05-10T00:25:14.336Z,933.02
2023-05-10T00:25:44.310Z,933.02
2023-05-10T00:26:15.468Z,933.32
2023-05-10T00:26:46.615Z,933.32
2023-05-10T00:27:17.739Z,933.42
2023-05-10T00:27:48.796Z,933.42
2023-05-10T00:28:19.577Z,933.32
2023-05-10T00:28:50.323Z,933.32
2023-05-10T00:29:21.322Z,933.32
2023-05-10T00:29:52.263Z,933.32
2023-05-10T00:30:26.895Z,933.42
2023-05-10T00:30:54.264Z,933.42
2023-05-10T00:31:25.206Z,933.32
2023-05-10T00:31:56.187Z,933.32
2023-05-10T00:32:27.142Z,933.22
2023-05-10T00:32:58.529Z,933.22
2023-05-10T00:33:29.008Z,933.32
2023-05-10T00:34:00.447Z,933.32
2023-05-10T00:34:31.380Z,933.22
2023-05-10T00:35:02.861Z,933.22
2023-05-10T00:35:34.408Z,933.32
2023-05-10T00:36:04.899Z,933.32
2023-05-10T00:36:35.605Z,933.22
2023-05-10T00:37:06.756Z,933.22
2023-05-10T00:37:37.656Z,933.32
2023-05-10T00:38:08.791Z,933.22
2023-05-10T00:38:39.709Z,933.22
2023-05-10T00:39:10.711Z,933.32
2023-05-10T00:39:41.409Z,933.32
2023-05-10T00:40:13.332Z,933.12
2023-05-10T00:40:46.200Z,933.12
2023-05-10T00:41:14.592Z,933.32
2023-05-10T00:41:45.834Z,933.32
2023-05-10T00:42:17.048Z,933.22
2023-05-10T00:42:47.840Z,933.22
2023-05-10T00:43:18.465Z,933.22
2023-05-10T00:43:49.485Z,933.22
2023-05-10T00:44:20.415Z,933.32
2023-05-10T00:44:52.145Z,933.32
2023-05-10T00:45:25.510Z,933.42
2023-05-10T00:45:54.922Z,933.42
2023-05-10T00:46:24.402Z,933.42
2023-05-10T00:46:55.575Z,933.42
2023-05-10T00:47:26.751Z,933.42
2023-05-10T00:47:57.924Z,933.42
2023-05-10T00:48:28.450Z,933.22
2023-05-10T00:48:59.339Z,933.22
2023-05-10T00:49:30.494Z,933.52
2023-05-10T00:50:01.474Z,933.52
2023-05-10T00:50:33.419Z,933.42
2023-05-10T00:51:04.773Z,933.42
2023-05-10T00:51:34.587Z,933.42
2023-05-10T00:52:05.363Z,933.42
2023-05-10T00:52:36.603Z,933.42
2023-05-10T00:53:07.792Z,933.42
2023-05-10T00:53:38.270Z,933.32
2023-05-10T00:54:10.256Z,933.42
2023-05-10T00:54:40.325Z,933.42
2023-05-10T00:55:11.354Z,933.32
2023-05-10T00:55:42.668Z,933.32
2023-05-10T00:56:14.790Z,933.52
2023-05-10T00:56:44.967Z,933.52
2023-05-10T00:57:15.426Z,933.32
2023-05-10T00:57:46.972Z,933.32
2023-05-10T00:58:17.893Z,933.73
2023-05-10T00:58:48.800Z,933.73
2023-05-10T00:59:19.792Z,933.73
2023-05-10T00:59:50.299Z,933.73
2023-05-10T01:00:24.446Z,933.63
2023-05-10T01:00:52.289Z,933.63
2023-05-10T01:01:24.522Z,933.42
2023-05-10T01:01:54.453Z,933.42
2023-05-10T01:02:25.598Z,933.42
2023-05-10T01:02:57.127Z,933.42
2023-05-10T01:03:27.759Z,933.73
2023-05-10T01:03:58.633Z,933.73
2023-05-10T01:04:29.637Z,933.63
2023-05-10T01:05:00.505Z,933.63
2023-05-10T01:05:31.417Z,933.32
2023-05-10T01:06:02.680Z,933.32
2023-05-10T01:06:34.652Z,933.63
2023-05-10T01:07:04.492Z,933.63
2023-05-10T01:07:35.373Z,933.52
2023-05-10T01:08:06.526Z,933.52
2023-05-10T01:08:38.133Z,933.52
2023-05-10T01:09:09.470Z,933.83
2023-05-10T01:09:39.748Z,933.83
2023-05-10T01:10:10.697Z,933.73
2023-05-10T01:10:41.974Z,933.73
2023-05-10T01:11:12.433Z,933.42
2023-05-10T01:11:44.821Z,933.42
2023-05-10T01:12:18.331Z,933.63
2023-05-10T01:12:45.996Z,933.63
2023-05-10T01:13:16.331Z,933.63
2023-05-10T01:13:47.815Z,933.63
2023-05-10T01:14:19.235Z,933.52
2023-05-10T01:14:49.712Z,933.52
2023-05-10T01:15:23.576Z,933.63
2023-05-10T01:15:51.797Z,933.63
2023-05-10T01:16:23.233Z,933.83
2023-05-10T01:16:54.477Z,933.83
2023-05-10T01:17:24.589Z,933.83
2023-05-10T01:17:55.977Z,933.83
2023-05-10T01:18:26.420Z,933.63
2023-05-10T01:18:57.830Z,933.63
2023-05-10T01:19:28.639Z,933.52
2023-05-10T01:19:59.769Z,933.52
2023-05-10T01:20:30.532Z,933.73
2023-05-10T01:21:01.751Z,933.73
2023-05-10T01:21:33.018Z,933.93
2023-05-10T01:22:04.576Z,933.93
2023-05-10T01:22:34.470Z,933.83
2023-05-10T01:23:05.502Z,933.83
2023-05-10T01:23:36.871Z,933.73
2023-05-10T01:24:08.143Z,933.73
2023-05-10T01:24:38.688Z,933.73
2023-05-10T01:25:09.524Z,933.52
2023-05-10T01:25:40.457Z,933.52
2023-05-10T01:26:12.014Z,933.63
2023-05-10T01:26:42.794Z,933.63
2023-05-10T01:27:14.699Z,933.63
2023-05-10T01:27:44.606Z,933.63
2023-05-10T01:28:15.728Z,933.73
2023-05-10T01:28:46.842Z,933.73
2023-05-10T01:29:17.719Z,933.63
2023-05-10T01:29:53.465Z,933.63
2023-05-10T01:30:23.052Z,933.73
2023-05-10T01:30:50.718Z,933.73
2023-05-10T01:31:22.003Z,933.73
2023-05-10T01:31:52.747Z,933.73
2023-05-10T01:32:24.546Z,933.73
2023-05-10T01:32:54.594Z,933.73
2023-05-10T01:33:25.809Z,933.73
2023-05-10T01:33:56.904Z,933.73
2023-05-10T01:34:27.770Z,933.73
2023-05-10T01:34:58.808Z,933.73
2023-05-10T01:35:29.347Z,933.73
2023-05-10T01:36:00.498Z,933.73
2023-05-10T01:36:32.258Z,933.73
2023-05-10T01:37:02.953Z,933.73
2023-05-10T01:37:34.530Z,933.83
2023-05-10T01:38:04.692Z,933.83
2023-05-10T01:38:35.871Z,933.73
2023-05-10T01:39:06.900Z,933.73
2023-05-10T01:39:37.537Z,933.73
2023-05-10T01:40:08.558Z,933.83
2023-05-10T01:40:39.562Z,933.83
2023-05-10T01:41:10.633Z,933.73
2023-05-10T01:41:41.539Z,933.73
2023-05-10T01:42:13.140Z,933.83
2023-05-10T01:42:44.644Z,933.83
2023-05-10T01:43:14.262Z,933.93
2023-05-10T01:43:45.348Z,933.93
2023-05-10T01:44:16.500Z,933.73
2023-05-10T01:44:47.656Z,933.73
2023-05-10T01:45:21.326Z,933.73
2023-05-10T01:45:49.544Z,933.73
2023-05-10T01:46:20.617Z,933.83
2023-05-10T01:46:51.694Z,933.83
2023-05-10T01:47:22.953Z,933.93
2023-05-10T01:47:54.389Z,933.93
2023-05-10T01:48:24.576Z,933.93
2023-05-10T01:48:55.723Z,933.93
2023-05-10T01:49:26.477Z,933.63
2023-05-10T01:49:57.822Z,933.63
2023-05-10T01:50:28.433Z,933.83
2023-05-10T01:50:59.688Z,933.83
2023-05-10T01:51:30.545Z,933.83
2023-05-10T01:52:01.302Z,933.83
2023-05-10T01:52:32.347Z,933.83
2023-05-10T01:53:04.343Z,933.83
2023-05-10T01:53:35.120Z,933.83
2023-05-10T01:54:05.447Z,933.83
2023-05-10T01:54:36.971Z,933.83
2023-05-10T01:55:07.483Z,933.83
2023-05-10T01:55:39.014Z,933.83
2023-05-10T01:56:09.631Z,933.93
2023-05-10T01:56:40.342Z,933.93
2023-05-10T01:57:11.633Z,933.93
2023-05-10T01:57:42.427Z,933.93
2023-05-10T01:58:14.348Z,934.03
2023-05-10T01:58:44.655Z,934.03
2023-05-10T01:59:15.353Z,933.73
2023-05-10T01:59:46.214Z,933.73
2023-05-10T02:00:20.606Z,933.93
2023-05-10T02:00:48.444Z,933.93
2023-05-10T02:01:19.540Z,933.93
2023-05-10T02:01:50.826Z,933.93
2023-05-10T02:02:21.568Z,933.93
2023-05-10T02:02:52.898Z,933.93
2023-05-10T02:03:24.560Z,933.93
2023-05-10T02:03:54.639Z,933.93
2023-05-10T02:04:25.508Z,933.93
2023-05-10T02:04:57.029Z,933.93
2023-05-10T02:05:28.016Z,934.03
2023-05-10T02:05:58.642Z,934.03
2023-05-10T02:06:30.086Z,934.03
2023-05-10T02:07:00.672Z,934.03
2023-05-10T02:07:31.394Z,933.93
2023-05-10T02:08:04.027Z,933.93
2023-05-10T02:08:34.461Z,933.93
2023-05-10T02:09:04.757Z,933.93
2023-05-10T02:09:35.732Z,933.83
2023-05-10T02:10:07.473Z,933.83
2023-05-10T02:10:37.729Z,933.93
2023-05-10T02:11:08.619Z,933.83
2023-05-10T02:11:39.826Z,933.83
2023-05-10T02:12:10.208Z,934.03
2023-05-10T02:12:41.551Z,934.03
2023-05-10T02:13:12.749Z,934.03
2023-05-10T02:13:44.533Z,934.03
2023-05-10T02:14:14.691Z,933.73
2023-05-10T02:14:45.857Z,933.73
2023-05-10T02:15:19.635Z,934.03
2023-05-10T02:15:47.734Z,934.03
2023-05-10T02:16:18.867Z,933.93
2023-05-10T02:16:49.765Z,933.93
2023-05-10T02:17:20.584Z,933.83
2023-05-10T02:17:52.233Z,933.83
2023-05-10T02:18:22.829Z,933.83
2023-05-10T02:18:54.648Z,933.83
2023-05-10T02:19:24.488Z,933.83
2023-05-10T02:19:55.885Z,933.83
2023-05-10T02:20:26.433Z,933.93
2023-05-10T02:20:57.290Z,933.93
2023-05-10T02:21:28.857Z,933.93
2023-05-10T02:21:59.918Z,933.93
2023-05-10T02:22:30.952Z,934.24
2023-05-10T02:23:01.490Z,934.24
2023-05-10T02:23:32.595Z,934.03
2023-05-10T02:24:04.561Z,934.03
2023-05-10T02:24:34.574Z,934.03
2023-05-10T02:25:05.670Z,934.03
2023-05-10T02:25:36.836Z,934.24
2023-05-10T02:26:07.903Z,934.24
2023-05-10T02:26:38.727Z,934.03
2023-05-10T02:27:09.876Z,934.13
2023-05-10T02:27:40.321Z,934.13
2023-05-10T02:28:11.387Z,934.13
2023-05-10T02:28:42.631Z,934.13
2023-05-10T02:29:14.594Z,934.03
2023-05-10T02:29:44.652Z,934.03
2023-05-10T02:30:18.830Z,934.03
2023-05-10T02:30:46.517Z,934.03
2023-05-10T02:31:18.160Z,934.13
2023-05-10T02:31:48.794Z,934.13
2023-05-10T02:32:19.642Z,934.03
2023-05-10T02:32:50.658Z,934.03
2023-05-10T02:33:21.718Z,934.03
2023-05-10T02:33:52.914Z,934.03
2023-05-10T02:34:24.672Z,934.03
2023-05-10T02:34:54.228Z,934.03
2023-05-10T02:35:25.518Z,934.13
2023-05-10T02:35:56.644Z,934.13
2023-05-10T02:36:27.735Z,934.13
2023-05-10T02:36:58.162Z,934.13
2023-05-10T02:37:29.795Z,934.13
2023-05-10T02:38:00.550Z,934.13
2023-05-10T02:38:31.685Z,934.13
2023-05-10T02:39:02.672Z,934.13
2023-05-10T02:39:34.912Z,934.03
2023-05-10T02:40:04.558Z,934.03
2023-05-10T02:40:35.728Z,934.13
2023-05-10T02:41:06.780Z,934.13
2023-05-10T02:41:38.098Z,934.03
2023-05-10T02:42:08.783Z,933.93
2023-05-10T02:42:39.756Z,933.93
2023-05-10T02:43:10.693Z,934.34
2023-05-10T02:43:41.778Z,934.34
2023-05-10T02:44:12.933Z,933.93
2023-05-10T02:44:44.424Z,933.93
2023-05-10T02:45:17.956Z,933.83
2023-05-10T02:45:45.857Z,933.83
2023-05-10T02:46:16.755Z,934.03
2023-05-10T02:46:47.079Z,934.03
2023-05-10T02:47:18.903Z,933.83
2023-05-10T02:47:49.695Z,933.83
2023-05-10T02:48:20.960Z,934.03
2023-05-10T02:48:51.354Z,934.03
2023-05-10T02:49:22.846Z,933.93
2023-05-10T02:49:54.649Z,933.93
2023-05-10T02:50:24.445Z,934.03
2023-05-10T02:50:55.876Z,934.03
2023-05-10T02:51:26.587Z,934.03
2023-05-10T02:51:57.897Z,934.03
2023-05-10T02:52:29.000Z,933.93
2023-05-10T02:52:59.747Z,933.93
2023-05-10T02:53:30.828Z,934.03
2023-05-10T02:54:02.033Z,934.03
2023-05-10T02:54:32.482Z,933.93
2023-05-10T02:55:04.829Z,933.93
2023-05-10T02:55:34.897Z,933.83
2023-05-10T02:56:06.202Z,933.83
2023-05-10T02:56:36.666Z,933.83
2023-05-10T02:57:07.533Z,933.83
2023-05-10T02:57:38.434Z,934.24
2023-05-10T02:58:09.701Z,934.03
2023-05-10T02:58:40.603Z,934.03
2023-05-10T02:59:11.724Z,933.93
2023-05-10T02:59:42.511Z,933.93
2023-05-10T03:00:17.671Z,934.24
2023-05-10T03:00:45.080Z,934.24
2023-05-10T03:01:15.743Z,934.13
2023-05-10T03:01:47.235Z,934.13
2023-05-10T03:02:17.390Z,934.13
2023-05-10T03:02:48.696Z,934.13
2023-05-10T03:03:19.458Z,934.03
2023-05-10T03:03:50.808Z,934.03
2023-05-10T03:04:24.977Z,934.13
2023-05-10T03:04:52.575Z,934.13
2023-05-10T03:05:24.249Z,933.93
2023-05-10T03:05:54.363Z,933.93
2023-05-10T03:06:25.263Z,934.03
2023-05-10T03:06:56.371Z,934.03
2023-05-10T03:07:27.827Z,934.24
2023-05-10T03:07:58.557Z,934.24
2023-05-10T03:08:29.284Z,934.13
2023-05-10T03:09:00.627Z,934.13
2023-05-10T03:09:31.664Z,933.93
2023-05-10T03:10:02.783Z,933.93
2023-05-10T03:10:34.823Z,934.13
2023-05-10T03:11:04.416Z,934.13
2023-05-10T03:11:36.228Z,934.03
2023-05-10T03:12:06.470Z,934.03
2023-05-10T03:12:37.735Z,934.03
2023-05-10T03:13:09.198Z,933.93
2023-05-10T03:13:39.481Z,933.93
2023-05-10T03:14:10.665Z,934.03
2023-05-10T03:14:41.714Z,934.03
2023-05-10T03:15:15.638Z,934.13
2023-05-10T03:15:44.320Z,934.13
2023-05-10T03:16:14.570Z,934.03
2023-05-10T03:16:45.467Z,934.03
2023-05-10T03:17:16.659Z,934.03
2023-05-10T03:17:48.316Z,934.03
2023-05-10T03:18:19.156Z,933.83
2023-05-10T03:18:49.693Z,933.83
2023-05-10T03:19:21.025Z,933.83
2023-05-10T03:19:51.853Z,933.83
2023-05-10T03:20:22.400Z,934.03
2023-05-10T03:20:54.729Z,934.03
2023-05-10T03:21:24.565Z,934.34
2023-05-10T03:21:55.735Z,934.34
2023-05-10T03:22:26.541Z,934.13
2023-05-10T03:22:57.785Z,934.13
2023-05-10T03:23:28.816Z,933.93
2023-05-10T03:24:00.254Z,933.93
2023-05-10T03:24:31.125Z,934.03
2023-05-10T03:25:01.629Z,934.03
2023-05-10T03:25:32.519Z,933.73
2023-05-10T03:26:04.961Z,933.73
2023-05-10T03:26:34.697Z,934.03
2023-05-10T03:27:05.783Z,934.03
2023-05-10T03:27:36.616Z,934.24
2023-05-10T03:28:07.930Z,934.24
2023-05-10T03:28:38.780Z,933.93
2023-05-10T03:29:09.532Z,933.93
2023-05-10T03:29:40.647Z,933.93
2023-05-10T03:30:14.848Z,934.24
2023-05-10T03:30:43.022Z,934.24
2023-05-10T03:31:14.762Z,933.93
2023-05-10T03:31:45.234Z,933.93
2023-05-10T03:32:15.413Z,934.03
2023-05-10T03:32:46.560Z,934.03
2023-05-10T03:33:17.647Z,934.03
2023-05-10T03:33:48.920Z,934.03
2023-05-10T03:34:19.569Z,934.13
2023-05-10T03:34:50.816Z,934.13
2023-05-10T03:35:22.067Z,933.83
2023-05-10T03:35:52.919Z,933.83
2023-05-10T03:36:24.797Z,933.93
2023-05-10T03:36:54.402Z,933.93
2023-05-10T03:37:25.833Z,934.24
2023-05-10T03:37:56.389Z,934.24
2023-05-10T03:38:30.394Z,933.93
2023-05-10T03:38:58.740Z,933.93
2023-05-10T03:39:29.835Z,934.03
2023-05-10T03:40:00.537Z,934.03
2023-05-10T03:40:31.613Z,934.03
2023-05-10T03:41:02.658Z,934.03
2023-05-10T03:41:34.524Z,934.03
2023-05-10T03:42:04.362Z,934.03
2023-05-10T03:42:35.518Z,934.13
2023-05-10T03:43:06.558Z,934.13
2023-05-10T03:43:37.810Z,934.03
2023-05-10T03:46:44.816Z,934.13
2023-05-10T03:47:14.710Z,934.13
2023-05-10T03:47:48.050Z,934.13
2023-05-10T03:48:16.678Z,934.03
2023-05-10T03:48:47.920Z,934.03
2023-05-10T03:49:18.832Z,934.03
2023-05-10T03:49:49.762Z,934.03
2023-05-10T03:50:20.655Z,934.13
2023-05-10T03:50:51.528Z,934.13
2023-05-10T03:51:22.430Z,934.03
2023-05-10T03:51:56.772Z,934.03
2023-05-10T03:52:24.919Z,934.03
2023-05-10T03:52:55.574Z,934.03
2023-05-10T03:53:26.523Z,934.03
2023-05-10T03:53:57.746Z,934.03
2023-05-10T03:54:28.506Z,934.03
2023-05-10T03:54:59.732Z,934.03
2023-05-10T03:55:30.649Z,934.03
2023-05-10T03:56:01.434Z,934.03
2023-05-10T03:56:32.508Z,933.93
2023-05-10T03:57:04.569Z,933.93
2023-05-10T03:57:34.378Z,934.13
2023-05-10T03:58:05.499Z,934.13
2023-05-10T03:58:36.650Z,934.03
2023-05-10T03:59:07.562Z,934.03
2023-05-10T03:59:38.881Z,934.03
2023-05-10T04:00:13.305Z,934.13
2023-05-10T04:00:40.826Z,934.13
2023-05-10T04:01:11.797Z,934.03
2023-05-10T04:01:43.034Z,934.03
2023-05-10T04:02:14.762Z,934.13
2023-05-10T04:02:46.326Z,934.13
2023-05-10T04:03:15.934Z,934.03
2023-05-10T04:03:47.286Z,934.03
2023-05-10T04:04:17.988Z,934.13
2023-05-10T04:04:49.202Z,934.13
2023-05-10T04:05:20.061Z,934.24
2023-05-10T04:05:50.983Z,934.24
2023-05-10T04:06:21.749Z,934.13
2023-05-10T04:06:52.802Z,934.13
2023-05-10T04:07:24.866Z,934.13
2023-05-10T04:07:54.778Z,934.13
2023-05-10T04:08:25.616Z,934.24
2023-05-10T04:08:56.709Z,934.24
2023-05-10T04:09:27.726Z,934.34
2023-05-10T04:09:59.008Z,934.34
2023-05-10T04:10:29.722Z,934.03
2023-05-10T04:11:00.846Z,934.03
2023-05-10T04:11:31.723Z,934.24
2023-05-10T04:12:02.764Z,934.24
2023-05-10T04:12:34.843Z,933.93
2023-05-10T04:13:04.969Z,933.93
2023-05-10T04:13:35.887Z,934.24
2023-05-10T04:14:07.446Z,934.24
2023-05-10T04:14:37.946Z,934.13
2023-05-10T04:15:11.906Z,934.13
2023-05-10T04:15:39.783Z,934.13
2023-05-10T04:16:11.080Z,934.13
2023-05-10T04:16:42.762Z,934.13
2023-05-10T04:17:12.885Z,934.03
2023-05-10T04:17:45.854Z,934.03
2023-05-10T04:18:15.121Z,934.51
2023-05-10T04:18:46.079Z,934.51
2023-05-10T04:19:16.946Z,934.03
2023-05-10T04:19:48.201Z,934.03
2023-05-10T04:20:19.342Z,934.24
2023-05-10T04:20:50.237Z,934.24
2023-05-10T04:21:20.889Z,934.13
2023-05-10T04:21:51.634Z,934.13
2023-05-10T04:22:23.032Z,934.34
2023-05-10T04:22:54.922Z,934.34
2023-05-10T04:23:25.271Z,934.34
2023-05-10T04:23:56.123Z,934.34
2023-05-10T04:24:26.864Z,934.24
2023-05-10T04:24:58.228Z,934.24
2023-05-10T04:25:31.938Z,934.24
2023-05-10T04:25:59.732Z,934.24
2023-05-10T04:26:30.678Z,934.24
2023-05-10T04:27:01.587Z,934.24
2023-05-10T04:27:32.472Z,934.34
2023-05-10T04:28:04.514Z,934.34
2023-05-10T04:28:34.720Z,934.24
2023-05-10T04:29:05.740Z,934.24
2023-05-10T04:29:37.059Z,934.24
2023-05-10T04:30:10.418Z,934.24
2023-05-10T04:30:38.340Z,934.13
2023-05-10T04:31:09.697Z,934.34
2023-05-10T04:31:40.536Z,934.34
2023-05-10T04:32:11.551Z,934.13
2023-05-10T04:32:42.811Z,934.13
2023-05-10T04:33:14.408Z,934.13
2023-05-10T04:33:44.588Z,934.13
2023-05-10T04:34:15.319Z,934.44
2023-05-10T04:34:46.656Z,934.44
2023-05-10T04:35:17.413Z,934.24
2023-05-10T04:35:48.703Z,934.24
2023-05-10T04:36:19.754Z,934.34
2023-05-10T04:36:50.588Z,934.34
2023-05-10T04:37:21.543Z,934.24
2023-05-10T04:37:52.783Z,934.24
2023-05-10T04:38:24.799Z,934.44
2023-05-10T04:38:54.713Z,934.44
2023-05-10T04:39:25.420Z,934.24
2023-05-10T04:39:56.787Z,934.24
2023-05-10T04:40:28.273Z,934.44
2023-05-10T04:40:58.724Z,934.44
2023-05-10T04:41:29.776Z,934.13
2023-05-10T04:42:00.660Z,934.13
2023-05-10T04:42:31.925Z,934.24
2023-05-10T04:43:02.987Z,934.24
2023-05-10T04:43:35.157Z,934.34
2023-05-10T04:44:04.931Z,934.34
2023-05-10T04:44:35.610Z,934.61
2023-05-10T04:45:09.862Z,934.61
2023-05-10T04:45:38.184Z,934.44
2023-05-10T04:46:09.341Z,934.34
2023-05-10T04:46:39.770Z,934.34
2023-05-10T04:47:12.584Z,934.13
2023-05-10T04:47:42.497Z,934.13
2023-05-10T04:48:13.409Z,934.34
2023-05-10T04:48:45.309Z,934.34
2023-05-10T04:49:14.509Z,934.34
2023-05-10T04:49:45.533Z,934.34
2023-05-10T04:50:17.227Z,934.13
2023-05-10T04:50:47.503Z,934.13
2023-05-10T04:51:18.566Z,934.13
2023-05-10T04:51:49.513Z,934.13
2023-05-10T04:52:20.548Z,934.51
2023-05-10T04:52:53.423Z,934.51
2023-05-10T04:53:23.139Z,934.51
2023-05-10T04:54:05.300Z,934.51
2023-05-10T04:54:25.114Z,934.24
2023-05-10T04:54:55.649Z,934.24
2023-05-10T04:55:26.450Z,934.44
2023-05-10T04:55:57.657Z,934.44
2023-05-10T04:56:28.852Z,934.44
2023-05-10T04:56:59.748Z,934.44
2023-05-10T04:57:30.741Z,934.51
2023-05-10T04:58:01.785Z,934.51
2023-05-10T04:58:32.845Z,934.34
2023-05-10T04:59:04.712Z,934.34
2023-05-10T04:59:34.444Z,934.34
2023-05-10T05:00:08.787Z,934.34
2023-05-10T05:00:36.774Z,934.34
2023-05-10T05:01:07.801Z,934.34
2023-05-10T05:01:38.479Z,934.34
2023-05-10T05:02:09.766Z,934.34
2023-05-10T05:02:40.609Z,934.34
2023-05-10T05:03:11.472Z,934.51
2023-05-10T05:03:43.083Z,934.51
2023-05-10T05:04:14.566Z,934.51
2023-05-10T05:04:44.532Z,934.51
2023-05-10T05:05:15.670Z,934.34
2023-05-10T05:05:46.455Z,934.34
2023-05-10T05:06:17.641Z,934.44
2023-05-10T05:06:48.586Z,934.44
2023-05-10T05:07:19.977Z,934.34
2023-05-10T05:07:50.612Z,934.34
2023-05-10T05:08:21.824Z,934.44
2023-05-10T05:08:52.560Z,934.44
2023-05-10T05:09:24.586Z,934.34
2023-05-10T05:09:54.742Z,934.34
2023-05-10T05:10:25.562Z,934.34
2023-05-10T05:10:56.682Z,934.34
2023-05-10T05:11:27.642Z,934.61
2023-05-10T05:11:58.628Z,934.61
2023-05-10T05:12:29.687Z,934.34
2023-05-10T05:13:00.817Z,934.34
2023-05-10T05:13:31.746Z,934.44
2023-05-10T05:14:02.935Z,934.44
2023-05-10T05:14:34.540Z,934.44
2023-05-10T05:15:09.598Z,934.44
2023-05-10T05:15:35.563Z,934.51
2023-05-10T05:16:06.682Z,934.51
2023-05-10T05:16:37.958Z,934.61
2023-05-10T05:17:08.722Z,934.44
2023-05-10T05:17:39.502Z,934.44
2023-05-10T05:18:10.728Z,934.51
2023-05-10T05:18:41.793Z,934.51
2023-05-10T05:19:13.045Z,934.51
2023-05-10T05:19:44.838Z,934.51
2023-05-10T05:20:14.991Z,934.44
2023-05-10T05:20:45.980Z,934.44
2023-05-10T05:21:16.746Z,934.61
2023-05-10T05:21:47.740Z,934.61
2023-05-10T05:22:19.791Z,934.44
2023-05-10T05:22:49.908Z,934.44
2023-05-10T05:23:20.873Z,934.51
2023-05-10T05:23:51.799Z,934.51
2023-05-10T05:24:22.618Z,934.61
2023-05-10T05:24:54.697Z,934.61
2023-05-10T05:25:24.548Z,934.61
2023-05-10T05:25:55.607Z,934.61
2023-05-10T05:26:26.645Z,934.81
2023-05-10T05:26:57.607Z,934.81
2023-05-10T05:27:28.856Z,934.61
2023-05-10T05:27:59.679Z,934.61
2023-05-10T05:28:30.827Z,934.61
2023-05-10T05:29:02.115Z,934.61
2023-05-10T05:29:33.058Z,934.51
2023-05-10T05:30:07.690Z,934.51
2023-05-10T05:30:34.459Z,934.81
2023-05-10T05:31:05.978Z,934.81
2023-05-10T05:31:36.761Z,934.71
2023-05-10T05:32:07.532Z,934.71
2023-05-10T05:32:38.561Z,934.91
2023-05-10T05:33:09.798Z,934.61
2023-05-10T05:33:40.453Z,934.61
2023-05-10T05:34:11.521Z,934.71
2023-05-10T05:34:42.991Z,934.71
2023-05-10T05:35:14.974Z,934.81
2023-05-10T05:35:44.937Z,934.81
2023-05-10T05:36:15.884Z,934.71
2023-05-10T05:36:46.530Z,934.71
2023-05-10T05:37:17.929Z,934.71
2023-05-10T05:37:48.655Z,934.71
2023-05-10T05:38:19.367Z,934.81
2023-05-10T05:38:50.499Z,934.81
2023-05-10T05:39:21.532Z,934.71
2023-05-10T05:39:52.518Z,934.71
2023-05-10T05:40:24.834Z,934.91
2023-05-10T05:40:54.769Z,934.91
2023-05-10T05:41:25.641Z,934.81
2023-05-10T05:41:56.647Z,934.81
2023-05-10T05:42:27.979Z,934.81
2023-05-10T05:42:58.904Z,934.81
2023-05-10T05:43:29.655Z,934.81
2023-05-10T05:44:00.759Z,934.81
2023-05-10T05:44:32.144Z,934.91
2023-05-10T05:45:05.708Z,934.91
2023-05-10T05:45:34.403Z,934.61
2023-05-10T05:46:04.522Z,934.61
2023-05-10T05:46:35.497Z,934.81
2023-05-10T05:47:06.607Z,934.81
2023-05-10T05:47:37.606Z,934.81
2023-05-10T05:48:09.053Z,935.01
2023-05-10T05:48:39.677Z,935.01
2023-05-10T05:49:10.942Z,934.91
2023-05-10T05:49:41.870Z,934.91
2023-05-10T05:50:12.418Z,934.91
2023-05-10T05:50:44.761Z,934.91
2023-05-10T05:51:14.594Z,934.91
2023-05-10T05:51:45.995Z,934.91
2023-05-10T05:52:16.807Z,934.91
2023-05-10T05:52:48.104Z,934.91
2023-05-10T05:53:18.861Z,934.91
2023-05-10T05:53:50.040Z,934.91
2023-05-10T05:54:20.891Z,934.91
2023-05-10T05:54:51.435Z,934.91
2023-05-10T05:55:22.645Z,934.91
2023-05-10T05:55:54.719Z,934.91
2023-05-10T05:56:24.788Z,935.01
2023-05-10T05:56:55.294Z,935.01
2023-05-10T05:57:26.482Z,935.01
2023-05-10T05:57:57.404Z,935.01
2023-05-10T05:58:28.991Z,934.71
2023-05-10T05:58:59.704Z,934.71
2023-05-10T05:59:30.930Z,934.91
2023-05-10T06:00:04.473Z,934.91
2023-05-10T06:00:32.501Z,934.81
2023-05-10T06:01:04.598Z,934.81
2023-05-10T06:01:34.412Z,934.71
2023-05-10T06:02:05.741Z,934.71
2023-05-10T06:02:36.754Z,934.91
2023-05-10T06:03:07.573Z,934.91
2023-05-10T06:03:38.713Z,934.81
2023-05-10T06:04:10.213Z,934.91
2023-05-10T06:04:42.689Z,934.91
2023-05-10T06:05:11.545Z,934.81
2023-05-10T06:05:43.270Z,934.81
2023-05-10T06:06:15.259Z,934.91
2023-05-10T06:06:44.965Z,934.91
2023-05-10T06:07:15.881Z,935.01
2023-05-10T06:07:46.576Z,935.01
2023-05-10T06:08:17.681Z,934.81
2023-05-10T06:08:48.810Z,934.81
2023-05-10T06:09:19.698Z,934.91
2023-05-10T06:09:51.364Z,934.91
2023-05-10T06:10:22.117Z,934.81
2023-05-10T06:10:52.501Z,934.81
2023-05-10T06:11:24.913Z,934.81
2023-05-10T06:11:54.724Z,934.81
2023-05-10T06:12:25.691Z,934.91
2023-05-10T06:12:56.728Z,934.91
2023-05-10T06:13:27.793Z,934.81
2023-05-10T06:13:58.852Z,934.81
2023-05-10T06:14:30.009Z,934.51
2023-05-10T06:15:03.655Z,934.51
2023-05-10T06:15:32.040Z,934.91
2023-05-10T06:16:02.973Z,934.91
2023-05-10T06:16:34.751Z,934.81
2023-05-10T06:17:04.493Z,934.81
2023-05-10T06:17:35.521Z,934.91
2023-05-10T06:18:06.765Z,934.91
2023-05-10T06:18:37.659Z,934.91
2023-05-10T06:19:08.590Z,935.01
2023-05-10T06:19:39.805Z,935.01
2023-05-10T06:20:10.631Z,934.81
2023-05-10T06:20:41.787Z,934.81
2023-05-10T06:21:12.813Z,935.12
2023-05-10T06:21:44.807Z,935.12
2023-05-10T06:22:14.770Z,934.71
2023-05-10T06:22:45.982Z,934.71
2023-05-10T06:23:16.717Z,935.01
2023-05-10T06:23:48.002Z,935.01
2023-05-10T06:24:19.256Z,934.91
2023-05-10T06:24:49.701Z,934.91
2023-05-10T06:25:20.863Z,934.91
2023-05-10T06:25:51.714Z,934.91
2023-05-10T06:26:23.087Z,934.91
2023-05-10T06:26:54.633Z,934.91
2023-05-10T06:27:24.576Z,934.81
2023-05-10T06:27:55.822Z,934.81
2023-05-10T06:28:26.577Z,934.91
2023-05-10T06:28:57.548Z,934.91
2023-05-10T06:29:28.762Z,934.81